Lambsburg, Virginia
Current Conditions -  °F | °C
As of 3:55 PM on Thursday 20 Nov 2014 (Local Time) from KHLX Reporting Station
Clear Clear  
Wind Chill: 33°   Ceiling: Unl
Heat Index: 42°   Visibility: 10mi
Dew Point: 20°   Wind: 20mph
Humidity: 41%   Direction: 270°W
Pressure: 30"   Gusts: 26mph
Location:  36.59°N, 80.76°W
Report Text: KHLX 202055Z AUTO 27017G23KT 10SM CLR 06/M07 A3000 RMK AO2 T00551069
Loading
Personal Weather Stations






























Interactive Weather Map New forecast layout! Learn more

10-Day Weather Forecast

Advertisements
Track Severe Weather on mobile